Time;durP1;ratioP1;P1;durP2;ratioP2;P2;SDS_P1;SDS_P2;PMS_P1;PMS_P2;Temp;Humidity;BMP_temperature;BMP_pressure;BME280_temperature;BME280_humidity;BME280_pressure;Samples;Min_cycle;Max_cycle;Signal;HPM_P1;HPM_P2
2024/03/28 00:01:09;;;;;;;4.22;2.20;;;;;;;8.12;57.75;97198.09;10412379;28;20111;-60
2024/03/28 00:06:10;;;;;;;5.15;1.95;;;;;;;8.18;57.64;97197.53;10430992;28;20090;-59
2024/03/28 00:11:11;;;;;;;3.60;2.03;;;;;;;8.14;57.47;97189.16;10429972;28;20459;-59
2024/03/28 00:16:12;;;;;;;3.30;1.85;;;;;;;7.92;57.97;97189.47;10410303;28;20071;-59
2024/03/28 00:21:13;;;;;;;3.53;1.98;;;;;;;7.90;58.18;97209.63;10427373;28;20048;-59
2024/03/28 00:26:15;;;;;;;2.55;1.60;;;;;;;7.81;58.57;97219.06;10411125;28;20469;-59
2024/03/28 00:31:16;;;;;;;2.63;1.83;;;;;;;7.91;58.30;97211.28;10429546;28;20507;-59
2024/03/28 00:36:17;;;;;;;3.35;1.92;;;;;;;7.87;58.07;97212.50;10430053;28;20040;-59
2024/03/28 00:41:18;;;;;;;2.53;1.50;;;;;;;7.80;58.34;97198.41;10411830;28;20069;-59
2024/03/28 00:46:19;;;;;;;3.42;1.70;;;;;;;7.78;58.36;97180.34;10427760;28;20045;-60
2024/03/28 00:51:20;;;;;;;2.75;1.75;;;;;;;7.81;58.40;97161.84;10428870;28;20476;-59
2024/03/28 00:56:21;;;;;;;2.53;1.63;;;;;;;7.66;58.46;97149.44;10431503;28;20529;-59
2024/03/28 01:01:23;;;;;;;2.83;1.77;;;;;;;7.64;58.56;97153.94;10437684;28;20508;-59
2024/03/28 01:06:24;;;;;;;2.30;1.70;;;;;;;7.57;58.48;97145.88;10437670;28;20045;-59
2024/03/28 01:11:25;;;;;;;3.20;1.60;;;;;;;7.49;58.40;97150.97;10419787;28;20874;-59
2024/03/28 01:16:26;;;;;;;2.60;1.55;;;;;;;7.28;58.69;97162.50;10432298;28;20049;-59
2024/03/28 01:21:27;;;;;;;3.55;2.13;;;;;;;7.09;59.19;97158.13;10436076;28;20100;-59
2024/03/28 01:26:28;;;;;;;3.17;1.90;;;;;;;6.95;59.68;97158.53;10423734;28;20171;-58
2024/03/28 01:31:29;;;;;;;3.40;1.90;;;;;;;7.00;59.71;97149.38;10419471;28;20443;-59
2024/03/28 01:36:30;;;;;;;4.22;2.22;;;;;;;6.92;60.02;97145.81;10428076;28;20052;-60
2024/03/28 01:41:31;;;;;;;4.47;2.30;;;;;;;6.96;60.17;97126.41;10434001;28;20056;-59
2024/03/28 01:46:33;;;;;;;4.80;2.20;;;;;;;6.92;60.40;97132.81;10431733;28;20124;-59
2024/03/28 01:51:34;;;;;;;4.60;2.17;;;;;;;6.97;60.21;97133.25;10417363;28;20037;-59
2024/03/28 01:56:35;;;;;;;3.75;2.08;;;;;;;6.83;60.43;97133.66;10434437;28;20056;-59
2024/03/28 02:01:39;;;;;;;4.72;2.50;;;;;;;6.89;60.50;97133.94;10431587;28;20135;-59
2024/03/28 02:06:40;;;;;;;4.00;2.15;;;;;;;6.86;60.27;97134.19;10432052;28;20451;-59
2024/03/28 02:11:41;;;;;;;3.05;1.90;;;;;;;6.67;60.43;97130.78;10435504;28;20045;-59
2024/03/28 02:16:41;;;;;;;5.43;2.85;;;;;;;6.59;60.77;97139.25;10432526;28;20041;-60
2024/03/28 02:21:47;;;;;;;3.50;1.98;;;;;;;6.61;60.90;97133.91;10431931;28;20562;-60
2024/03/28 02:26:48;;;;;;;3.15;2.00;;;;;;;6.59;60.82;97126.28;10419366;28;20045;-59
2024/03/28 02:31:49;;;;;;;3.88;1.90;;;;;;;6.62;60.55;97133.78;10431008;28;20048;-59
2024/03/28 02:36:50;;;;;;;4.15;2.17;;;;;;;6.48;61.01;97133.34;10431934;28;20048;-59
2024/03/28 02:41:51;;;;;;;4.05;2.10;;;;;;;6.47;60.85;97134.31;10426042;28;20428;-60
2024/03/28 02:46:52;;;;;;;3.28;1.92;;;;;;;6.40;60.76;97135.78;10422678;28;20641;-59
2024/03/28 02:51:53;;;;;;;2.85;1.60;;;;;;;6.17;60.55;97132.53;10425735;28;20822;-60
2024/03/28 02:57:00;;;;;;;2.83;1.50;;;;;;;6.04;60.94;97130.19;10395553;28;20037;-60
2024/03/28 03:02:01;;;;;;;2.95;1.65;;;;;;;6.01;61.09;97114.06;10412580;28;20079;-59
2024/03/28 03:07:02;;;;;;;3.03;1.60;;;;;;;5.93;60.87;97109.53;10417607;28;20056;-59
2024/03/28 03:12:03;;;;;;;3.78;1.70;;;;;;;5.79;60.97;97109.91;10391084;28;20073;-61
2024/03/28 03:17:04;;;;;;;3.72;1.80;;;;;;;5.67;61.55;97100.56;10409838;28;20041;-58
2024/03/28 03:22:06;;;;;;;2.20;1.42;;;;;;;5.48;61.36;97106.47;10393396;28;20075;-59
2024/03/28 03:27:16;;;;;;;3.05;1.73;;;;;;;5.46;61.58;97112.72;10426004;28;20056;-59
2024/03/28 03:37:37;;;;;;;2.97;1.87;;;;;;;5.26;61.80;97095.44;10421229;28;20044;-59
2024/03/28 03:42:38;;;;;;;3.30;2.00;;;;;;;5.18;61.62;97085.72;10407661;28;20505;-59
2024/03/28 03:47:39;;;;;;;3.00;1.60;;;;;;;5.03;61.92;97076.59;10406088;28;20504;-59
2024/03/28 03:52:40;;;;;;;3.80;2.15;;;;;;;4.98;62.12;97080.53;10426007;28;20052;-58
2024/03/28 03:57:41;;;;;;;3.35;1.73;;;;;;;5.01;62.24;97082.84;10423618;28;20049;-59
2024/03/28 04:02:42;;;;;;;3.35;1.88;;;;;;;4.93;62.02;97083.50;10422778;28;20040;-59
2024/03/28 04:07:43;;;;;;;3.67;2.00;;;;;;;4.69;62.56;97075.97;10426826;28;20053;-59
2024/03/28 04:12:44;;;;;;;2.88;1.67;;;;;;;4.51;62.43;97054.19;10407275;28;20059;-59
2024/03/28 04:17:45;;;;;;;2.35;1.52;;;;;;;4.41;62.31;97045.47;10402813;28;20045;-58
2024/03/28 04:22:46;;;;;;;2.92;1.67;;;;;;;4.50;62.50;97049.94;10405474;28;20594;-59
2024/03/28 04:27:47;;;;;;;2.10;1.50;;;;;;;4.59;62.25;97038.00;10411624;28;20044;-59
2024/03/28 04:32:48;;;;;;;2.13;1.33;;;;;;;4.56;62.18;97033.91;10405863;28;20115;-59
2024/03/28 04:37:49;;;;;;;2.15;1.35;;;;;;;4.47;62.03;97029.50;10409579;28;20791;-59
2024/03/28 04:42:50;;;;;;;3.65;1.58;;;;;;;4.39;61.92;97023.28;10425096;28;20045;-59
2024/03/28 04:47:52;;;;;;;2.67;1.48;;;;;;;4.20;61.96;97016.19;10422272;28;20052;-59
2024/03/28 04:52:53;;;;;;;2.20;1.50;;;;;;;3.99;62.28;97006.72;10428660;28;20037;-59
2024/03/28 04:57:54;;;;;;;6.45;1.40;;;;;;;4.05;62.43;97003.66;10411545;28;20049;-59
2024/03/28 05:02:55;;;;;;;2.10;1.40;;;;;;;3.92;62.49;97001.22;10429098;28;20044;-60
2024/03/28 05:07:55;;;;;;;2.20;1.40;;;;;;;3.96;62.77;96997.47;10426724;28;20135;-58
2024/03/28 05:12:56;;;;;;;3.40;1.88;;;;;;;3.78;62.68;96988.53;10427420;28;20497;-60
2024/03/28 05:17:58;;;;;;;3.20;1.67;;;;;;;3.76;62.79;96978.31;10424374;28;20045;-60
2024/03/28 05:22:59;;;;;;;3.88;2.70;;;;;;;3.61;62.99;96956.28;10428823;28;20147;-60
2024/03/28 05:28:00;;;;;;;4.38;1.80;;;;;;;3.67;63.01;96952.38;10430530;28;20053;-60
2024/03/28 05:33:01;;;;;;;3.10;2.17;;;;;;;3.76;63.05;96962.00;10426600;28;20136;-60
2024/03/28 05:38:02;;;;;;;3.15;1.80;;;;;;;3.87;62.84;96956.81;10429176;28;20060;-60
2024/03/28 05:43:03;;;;;;;3.83;1.98;;;;;;;3.75;62.99;96957.75;10433706;28;20143;-59
2024/03/28 05:48:05;;;;;;;3.22;2.17;;;;;;;3.82;62.83;96953.75;10416479;28;20044;-59
2024/03/28 05:53:06;;;;;;;4.63;2.15;;;;;;;3.78;63.24;96967.88;10404104;28;20037;-59
2024/03/28 05:58:07;;;;;;;2.70;1.50;;;;;;;3.80;63.24;96976.31;10435342;28;20095;-59
2024/03/28 06:03:08;;;;;;;3.97;1.92;;;;;;;3.95;63.37;96972.53;10434984;28;20051;-60
2024/03/28 06:08:08;;;;;;;3.22;1.80;;;;;;;4.19;63.24;96980.91;10431906;28;20052;-60
2024/03/28 06:13:10;;;;;;;4.93;2.13;;;;;;;4.46;62.68;96983.00;10432964;28;20044;-60
2024/03/28 06:18:14;;;;;;;2.63;1.75;;;;;;;4.75;61.99;96975.44;10431956;28;20442;-60
2024/03/28 06:23:15;;;;;;;3.95;2.03;;;;;;;5.11;62.01;96980.13;10432135;28;20041;-60
2024/03/28 06:28:19;;;;;;;3.55;2.08;;;;;;;5.51;61.46;96961.06;10414806;28;20056;-61
2024/03/28 06:33:20;;;;;;;3.78;2.00;;;;;;;5.64;61.37;96970.34;10432599;28;20888;-61
2024/03/28 06:38:21;;;;;;;3.72;1.90;;;;;;;5.75;61.46;96963.31;10429489;28;20051;-61
2024/03/28 06:43:22;;;;;;;4.75;2.30;;;;;;;6.20;61.13;96968.81;10429399;28;20041;-61
2024/03/28 06:48:24;;;;;;;3.85;2.30;;;;;;;6.49;60.84;96961.06;10408763;28;20053;-61
2024/03/28 06:53:25;;;;;;;6.60;2.20;;;;;;;6.80;60.08;96972.88;10429307;28;20323;-61
2024/03/28 06:58:26;;;;;;;5.57;2.50;;;;;;;6.82;59.97;96951.00;10431207;28;20052;-61
2024/03/28 07:03:26;;;;;;;6.80;2.65;;;;;;;6.69;60.19;96965.25;10413140;28;20040;-61
2024/03/28 07:08:27;;;;;;;3.80;1.92;;;;;;;6.66;60.62;96981.09;10427284;28;20417;-61
2024/03/28 07:13:31;;;;;;;5.07;2.38;;;;;;;6.58;60.75;96981.81;10445994;28;20098;-61
2024/03/28 07:18:32;;;;;;;7.18;2.58;;;;;;;6.59;60.97;96986.06;10426329;28;20056;-62
2024/03/28 07:23:33;;;;;;;3.78;2.42;;;;;;;6.78;60.57;96998.16;10410998;28;20052;-61
2024/03/28 07:28:34;;;;;;;2.75;1.58;;;;;;;7.07;59.93;96997.16;10426529;28;20378;-61
2024/03/28 07:33:35;;;;;;;1.98;1.40;;;;;;;7.26;58.45;96985.06;10446032;28;20370;-61
2024/03/28 07:38:37;;;;;;;1.58;1.00;;;;;;;7.61;58.45;96993.78;10426656;28;20684;-61
2024/03/28 07:43:37;;;;;;;2.33;1.40;;;;;;;7.76;57.24;97000.16;10428166;28;20055;-61
2024/03/28 07:48:38;;;;;;;2.00;1.20;;;;;;;7.76;57.70;96989.75;10418571;28;20061;-61
2024/03/28 07:53:40;;;;;;;0.98;0.82;;;;;;;7.88;56.86;96996.41;10424127;28;20045;-60
2024/03/28 07:58:40;;;;;;;1.00;0.90;;;;;;;8.08;56.70;96998.91;10408578;28;20052;-61
2024/03/28 08:03:41;;;;;;;1.10;0.90;;;;;;;8.37;56.35;97009.94;10424677;28;20055;-60
2024/03/28 08:08:42;;;;;;;1.17;0.90;;;;;;;8.49;55.58;97021.75;10426441;28;20079;-60
2024/03/28 08:13:43;;;;;;;1.02;0.90;;;;;;;8.44;55.87;97035.25;10424061;28;20060;-61
2024/03/28 08:18:44;;;;;;;0.98;0.88;;;;;;;8.37;56.22;97051.59;10424949;28;20438;-60
2024/03/28 08:23:45;;;;;;;0.55;0.52;;;;;;;8.32;55.84;97052.06;10394655;28;20037;-60
2024/03/28 08:28:47;;;;;;;1.05;0.80;;;;;;;8.24;56.04;97046.75;10392314;28;20152;-61
2024/03/28 08:33:48;;;;;;;1.00;0.80;;;;;;;8.43;55.90;97031.00;10425009;28;20049;-61
2024/03/28 08:38:49;;;;;;;0.88;0.70;;;;;;;9.29;55.28;96978.06;10424478;28;20045;-60
2024/03/28 08:43:50;;;;;;;0.98;0.70;;;;;;;11.06;53.18;96962.75;10424452;28;20546;-60
2024/03/28 08:48:51;;;;;;;1.45;0.88;;;;;;;11.38;51.73;96977.53;10405002;28;20092;-60
2024/03/28 08:53:52;;;;;;;0.50;0.50;;;;;;;11.59;51.06;97008.41;10406889;28;20044;-60
2024/03/28 08:58:55;;;;;;;1.13;0.70;;;;;;;11.17;51.42;97027.00;10422234;28;20136;-60
2024/03/28 09:03:57;;;;;;;1.17;0.88;;;;;;;10.58;52.15;97042.97;10417329;28;20102;-60
2024/03/28 09:09:00;;;;;;;1.67;0.90;;;;;;;10.60;52.20;97059.28;10405817;28;20421;-60
2024/03/28 09:14:03;;;;;;;0.90;0.60;;;;;;;10.27;52.34;97066.25;10405205;28;20064;-61
2024/03/28 09:19:06;;;;;;;0.60;0.60;;;;;;;10.15;52.66;97078.78;10464277;28;20045;-61
2024/03/28 09:24:09;;;;;;;0.60;0.60;;;;;;;9.78;52.50;97088.72;10382138;28;20045;-61
2024/03/28 09:29:10;;;;;;;0.75;0.75;;;;;;;9.53;53.23;97100.78;10414737;28;20052;-59
2024/03/28 09:34:11;;;;;;;0.82;0.80;;;;;;;9.26;53.88;97103.53;10430016;28;20152;-59
2024/03/28 09:39:13;;;;;;;0.55;0.55;;;;;;;9.19;53.97;97127.75;10449238;28;20762;-60
2024/03/28 09:44:19;;;;;;;0.95;0.82;;;;;;;9.21;54.16;97133.63;10417255;28;20342;-59
2024/03/28 09:49:23;;;;;;;1.05;0.85;;;;;;;9.22;55.43;97145.72;10420142;28;20131;-59
2024/03/28 09:54:24;;;;;;;0.88;0.88;;;;;;;9.70;55.13;97153.09;10429490;28;20049;-60
2024/03/28 09:59:27;;;;;;;0.85;0.70;;;;;;;9.84;55.14;97149.94;10436264;28;20253;-60
2024/03/28 10:04:29;;;;;;;1.73;0.70;;;;;;;10.00;55.23;97150.00;10420327;28;20072;-60
2024/03/28 10:09:31;;;;;;;0.60;0.60;;;;;;;10.65;54.22;97141.47;10436357;28;20049;-59
2024/03/28 10:14:35;;;;;;;0.90;0.73;;;;;;;11.85;52.60;97158.22;10446447;28;20049;-59
2024/03/28 10:19:39;;;;;;;0.47;0.47;;;;;;;12.35;50.16;97164.03;10433129;28;20095;-60
2024/03/28 10:24:46;;;;;;;1.45;1.05;;;;;;;11.84;49.76;97167.91;10415890;28;20548;-59
2024/03/28 10:29:53;;;;;;;7.07;1.05;;;;;;;11.56;49.37;97181.50;10432929;28;20090;-60
2024/03/28 10:34:54;;;;;;;0.95;0.75;;;;;;;12.04;49.20;97177.03;10431387;28;20094;-60
2024/03/28 10:39:55;;;;;;;0.77;0.50;;;;;;;11.80;49.65;97171.00;10434619;28;20459;-60
2024/03/28 10:44:59;;;;;;;1.35;0.73;;;;;;;11.62;47.07;97179.03;10418760;28;20044;-59
2024/03/28 10:50:39;;;;;;;0.50;0.50;;;;;;;11.25;42.83;97184.75;10435737;28;20060;-60
2024/03/28 10:55:46;;;;;;;0.20;0.20;;;;;;;10.94;43.70;97220.31;10398164;28;20493;-59
2024/03/28 11:00:48;;;;;;;0.20;0.20;;;;;;;10.98;41.24;97212.94;10431483;28;20179;-61
2024/03/28 11:05:51;;;;;;;0.30;0.30;;;;;;;11.22;42.26;97213.84;10408238;28;20408;-59
2024/03/28 11:10:53;;;;;;;0.40;0.40;;;;;;;11.55;42.15;97225.16;10426090;28;20041;-59
2024/03/28 11:16:05;;;;;;;0.30;0.30;;;;;;;11.47;39.26;97224.34;10426427;28;20420;-60
2024/03/28 11:21:07;;;;;;;0.47;0.30;;;;;;;11.68;39.75;97240.41;10430459;28;20049;-60
2024/03/28 11:26:09;;;;;;;2.72;0.35;;;;;;;11.95;39.14;97238.25;10430177;28;20041;-60
2024/03/28 11:31:13;;;;;;;0.75;0.40;;;;;;;11.96;37.75;97260.03;10413119;28;20509;-60
2024/03/28 11:36:14;;;;;;;0.35;0.25;;;;;;;11.89;37.21;97265.09;10424736;28;20459;-60
2024/03/28 11:41:15;;;;;;;1.25;0.40;;;;;;;11.76;37.87;97263.97;10427175;28;20053;-59
2024/03/28 11:46:16;;;;;;;0.10;0.10;;;;;;;12.00;39.83;97261.34;10427461;28;20047;-59
2024/03/28 11:51:19;;;;;;;1.00;0.65;;;;;;;12.15;39.77;97262.28;10426126;28;20123;-59
2024/03/28 11:56:23;;;;;;;0.30;0.30;;;;;;;12.30;38.82;97275.56;10394642;28;20041;-59
2024/03/28 12:01:24;;;;;;;0.20;0.20;;;;;;;11.98;38.44;97307.81;10427943;28;20041;-59
2024/03/28 12:06:25;;;;;;;0.10;0.10;;;;;;;12.11;38.15;97300.28;10422603;28;20052;-59
2024/03/28 12:11:27;;;;;;;0.60;0.40;;;;;;;12.47;37.56;97279.78;10389954;28;20517;-59
2024/03/28 12:16:28;;;;;;;0.45;0.25;;;;;;;12.23;38.58;97314.69;10422478;28;20041;-59
2024/03/28 12:21:29;;;;;;;1.13;0.75;;;;;;;11.62;43.39;97411.22;10419845;28;20421;-60
2024/03/28 12:26:30;;;;;;;3.28;1.50;;;;;;;9.79;48.82;97444.53;10423029;28;20049;-60
2024/03/28 12:31:33;;;;;;;1.00;0.60;;;;;;;9.14;52.10;97428.06;10425401;28;20135;-59
2024/03/28 12:36:34;;;;;;;0.80;0.60;;;;;;;8.89;51.51;97452.16;10401251;28;20735;-59
2024/03/28 12:41:37;;;;;;;0.10;0.10;;;;;;;8.57;52.40;97459.47;10424896;28;20069;-59
2024/03/28 12:46:42;;;;;;;0.13;0.13;;;;;;;8.47;53.02;97464.69;10420895;28;20452;-59
2024/03/28 12:51:44;;;;;;;1.02;0.55;;;;;;;8.83;52.99;97450.13;10419778;28;21427;-59
2024/03/28 12:56:45;;;;;;;0.25;0.25;;;;;;;9.79;51.18;97441.91;10403865;28;20340;-59
2024/03/28 13:01:46;;;;;;;0.22;0.22;;;;;;;10.34;49.78;97443.41;10416476;28;20527;-59
2024/03/28 13:06:48;;;;;;;0.25;0.25;;;;;;;10.72;49.46;97443.09;10435647;28;20037;-59
2024/03/28 13:11:49;;;;;;;0.30;0.30;;;;;;;10.63;47.92;97443.97;10391834;28;20099;-59
2024/03/28 13:16:50;;;;;;;0.38;0.38;;;;;;;10.66;47.85;97446.31;10409339;28;20067;-59
2024/03/28 13:21:51;;;;;;;0.73;0.30;;;;;;;10.89;47.24;97452.66;10428024;28;20385;-59
2024/03/28 13:26:52;;;;;;;0.63;0.35;;;;;;;10.95;47.13;97441.59;10426253;28;20920;-59
2024/03/28 13:31:53;;;;;;;1.55;0.30;;;;;;;10.49;47.45;97460.22;10428963;28;20451;-59
2024/03/28 13:36:54;;;;;;;0.30;0.30;;;;;;;10.75;47.44;97463.69;10429680;28;20059;-59
2024/03/28 13:41:55;;;;;;;0.50;0.40;;;;;;;10.86;47.16;97462.63;10429256;28;20471;-59
2024/03/28 13:46:58;;;;;;;0.25;0.25;;;;;;;11.30;47.04;97464.22;10380116;28;20045;-59
2024/03/28 13:52:00;;;;;;;0.30;0.30;;;;;;;11.25;44.86;97454.22;10414017;28;20041;-59
2024/03/28 13:57:01;;;;;;;0.38;0.38;;;;;;;11.66;45.59;97473.53;10422639;28;20044;-59
2024/03/28 14:02:04;;;;;;;0.47;0.30;;;;;;;11.64;44.88;97474.69;10423702;28;20135;-59
2024/03/28 14:07:05;;;;;;;0.90;0.52;;;;;;;11.46;45.57;97464.28;10430090;28;20048;-59
2024/03/28 14:12:07;;;;;;;0.85;0.73;;;;;;;11.23;43.53;97461.41;10431007;28;20053;-59
2024/03/28 14:17:08;;;;;;;1.88;0.55;;;;;;;11.14;42.81;97467.56;10428818;28;20049;-59
2024/03/28 14:22:08;;;;;;;2.13;0.50;;;;;;;11.04;42.30;97486.97;10409966;28;20319;-59
2024/03/28 14:27:09;;;;;;;0.40;0.40;;;;;;;11.01;41.73;97495.88;10423808;28;20371;-59
2024/03/28 14:32:10;;;;;;;1.75;0.70;;;;;;;11.30;40.50;97499.06;10401258;28;20419;-59
2024/03/28 14:37:11;;;;;;;0.40;0.40;;;;;;;11.83;40.50;97485.72;10408332;28;20402;-59
2024/03/28 14:42:12;;;;;;;1.05;0.50;;;;;;;12.20;40.38;97497.59;10428282;28;20049;-59
2024/03/28 14:47:13;;;;;;;0.55;0.40;;;;;;;11.92;38.09;97483.97;10443479;28;20052;-59
2024/03/28 14:52:14;;;;;;;0.73;0.47;;;;;;;12.04;39.81;97498.41;10410416;28;20045;-59
2024/03/28 14:57:15;;;;;;;1.38;0.55;;;;;;;11.89;39.11;97513.06;10426436;28;20052;-59
2024/03/28 15:02:17;;;;;;;0.95;0.30;;;;;;;11.76;38.35;97541.50;10406963;28;20041;-60
2024/03/28 15:07:18;;;;;;;0.98;0.57;;;;;;;11.63;39.78;97546.34;10411495;28;20315;-59
2024/03/28 15:12:19;;;;;;;0.93;0.57;;;;;;;11.62;39.44;97550.75;10463322;28;20056;-59
2024/03/28 15:17:20;;;;;;;0.85;0.45;;;;;;;11.69;39.76;97572.72;10429422;28;20059;-59
2024/03/28 15:22:21;;;;;;;1.35;0.40;;;;;;;11.28;41.28;97620.53;10429964;28;20045;-59
2024/03/28 15:27:22;;;;;;;1.63;0.50;;;;;;;10.03;47.02;97630.19;10411987;28;20053;-59
2024/03/28 15:32:23;;;;;;;0.30;0.30;;;;;;;9.70;47.73;97641.13;10430037;28;20488;-59
2024/03/28 15:37:24;;;;;;;0.25;0.25;;;;;;;9.95;47.18;97640.50;10444263;28;20045;-59
2024/03/28 15:42:25;;;;;;;0.43;0.20;;;;;;;10.16;47.49;97636.69;10412942;28;20510;-59
2024/03/28 15:47:26;;;;;;;0.22;0.22;;;;;;;10.46;47.12;97653.91;10428665;28;20045;-59
2024/03/28 15:52:27;;;;;;;0.32;0.30;;;;;;;10.39;47.28;97642.38;10412331;28;20239;-59
2024/03/28 15:57:28;;;;;;;1.65;0.63;;;;;;;10.41;47.04;97638.66;10428101;28;20059;-60
2024/03/28 16:02:29;;;;;;;1.85;0.43;;;;;;;10.37;47.38;97650.34;10428389;28;20171;-59
2024/03/28 16:07:30;;;;;;;0.30;0.30;;;;;;;10.34;47.25;97639.34;10425314;28;20052;-60
2024/03/28 16:12:31;;;;;;;0.70;0.30;;;;;;;10.33;47.09;97632.50;10409143;28;20048;-60
2024/03/28 16:17:32;;;;;;;0.52;0.50;;;;;;;10.28;47.25;97629.50;10423168;28;20449;-60
2024/03/28 16:22:33;;;;;;;1.25;0.70;;;;;;;10.26;47.28;97642.69;10422985;28;20497;-60
2024/03/28 16:27:35;;;;;;;0.28;0.28;;;;;;;10.27;47.38;97640.91;10421303;28;20052;-60
2024/03/28 16:32:36;;;;;;;1.02;0.30;;;;;;;10.46;47.32;97638.22;10440259;28;20041;-60
2024/03/28 16:37:37;;;;;;;2.72;0.40;;;;;;;10.50;47.24;97639.56;10425836;28;20132;-59
2024/03/28 16:42:38;;;;;;;0.28;0.28;;;;;;;10.53;46.94;97665.41;10411153;28;20132;-60
2024/03/28 16:47:39;;;;;;;0.65;0.43;;;;;;;10.51;46.85;97669.94;10424738;28;20037;-60
2024/03/28 16:52:40;;;;;;;0.45;0.43;;;;;;;10.51;46.79;97675.16;10411000;28;20049;-60
2024/03/28 16:57:41;;;;;;;1.30;0.47;;;;;;;10.54;47.24;97685.34;10425404;28;20048;-60
2024/03/28 17:02:42;;;;;;;1.70;0.60;;;;;;;10.53;47.52;97691.53;10410448;28;20094;-60
2024/03/28 17:07:49;;;;;;;0.90;0.50;;;;;;;10.54;48.10;97698.41;10425292;28;20470;-60
2024/03/28 17:12:50;;;;;;;1.67;0.63;;;;;;;10.53;48.61;97701.97;10425009;28;20049;-60
2024/03/28 17:17:51;;;;;;;0.95;0.73;;;;;;;10.52;48.99;97692.50;10423701;28;20599;-59
2024/03/28 17:22:53;;;;;;;0.22;0.22;;;;;;;10.48;48.84;97688.53;10394353;28;20131;-59
2024/03/28 17:27:54;;;;;;;1.35;0.70;;;;;;;10.32;48.54;97698.78;10422533;28;20520;-60
2024/03/28 17:32:55;;;;;;;2.67;0.68;;;;;;;10.22;48.83;97703.22;10409500;28;20033;-60
2024/03/28 17:37:56;;;;;;;0.77;0.50;;;;;;;10.07;49.06;97702.03;10428405;28;20033;-61
2024/03/28 17:42:57;;;;;;;1.08;0.47;;;;;;;9.81;49.41;97695.78;10416150;28;20051;-60
2024/03/28 17:47:58;;;;;;;0.75;0.50;;;;;;;9.46;49.94;97699.78;10431895;28;20055;-60
2024/03/28 17:52:59;;;;;;;3.25;1.30;;;;;;;9.41;50.38;97717.66;10449046;28;20068;-60
2024/03/28 17:58:00;;;;;;;0.75;0.60;;;;;;;9.32;50.61;97721.06;10431671;28;20290;-60
2024/03/28 18:03:02;;;;;;;3.75;0.93;;;;;;;9.24;50.92;97733.16;10432505;28;20045;-60
2024/03/28 18:08:04;;;;;;;1.30;0.90;;;;;;;9.18;51.03;97726.69;10427824;28;20049;-60
2024/03/28 18:13:05;;;;;;;1.80;1.15;;;;;;;9.10;51.38;97734.38;10410115;28;20049;-61
2024/03/28 18:18:06;;;;;;;4.18;1.90;;;;;;;8.93;51.34;97747.25;10425477;28;20045;-60
2024/03/28 18:23:08;;;;;;;4.00;2.35;;;;;;;8.73;51.88;97751.56;10427187;28;20048;-60
2024/03/28 18:28:09;;;;;;;2.63;1.48;;;;;;;8.68;51.45;97756.38;10410238;28;20066;-59
2024/03/28 18:33:10;;;;;;;3.70;1.33;;;;;;;8.80;50.98;97768.34;10405840;28;20071;-59
2024/03/28 18:38:11;;;;;;;1.42;0.93;;;;;;;8.88;50.59;97770.28;10393222;28;20045;-59
2024/03/28 18:43:15;;;;;;;1.83;1.02;;;;;;;8.88;50.41;97783.31;10428028;28;20136;-59
2024/03/28 18:48:16;;;;;;;0.80;0.60;;;;;;;8.78;50.26;97793.72;10425953;28;20045;-59
2024/03/28 18:53:17;;;;;;;1.13;0.90;;;;;;;8.75;50.39;97796.59;10425755;28;20068;-59
2024/03/28 18:58:18;;;;;;;1.02;0.88;;;;;;;8.77;50.20;97811.13;10423363;28;20052;-59
2024/03/28 19:03:22;;;;;;;3.08;0.80;;;;;;;8.69;50.24;97821.38;10428535;28;20416;-59
2024/03/28 19:08:26;;;;;;;1.90;1.10;;;;;;;8.69;50.36;97839.63;10427489;28;20044;-59
2024/03/28 19:13:27;;;;;;;5.07;2.05;;;;;;;8.59;50.55;97856.97;10408111;28;20053;-59
2024/03/28 19:18:28;;;;;;;2.85;1.05;;;;;;;8.68;50.54;97858.00;10428047;28;20457;-60
2024/03/28 19:23:29;;;;;;;2.33;0.93;;;;;;;8.65;50.76;97850.41;10408799;28;20045;-60
2024/03/28 19:28:30;;;;;;;0.57;0.55;;;;;;;8.61;50.62;97852.47;10425517;28;20812;-60
2024/03/28 19:33:33;;;;;;;0.63;0.40;;;;;;;8.58;50.75;97859.72;10409853;28;20087;-60
2024/03/28 19:38:34;;;;;;;1.60;0.73;;;;;;;8.41;50.92;97852.50;10426537;28;20049;-60
2024/03/28 19:43:35;;;;;;;1.27;0.80;;;;;;;8.52;50.75;97857.63;10421856;28;20512;-60
2024/03/28 19:48:37;;;;;;;2.08;1.15;;;;;;;8.49;50.74;97876.94;10392257;28;20493;-60
2024/03/28 19:53:38;;;;;;;0.70;0.60;;;;;;;8.47;50.92;97885.84;10457454;28;20037;-60
2024/03/28 19:58:39;;;;;;;2.30;0.60;;;;;;;8.38;51.08;97892.66;10424722;28;20053;-60
2024/03/28 20:03:40;;;;;;;2.25;0.68;;;;;;;8.36;51.12;97891.97;10425159;28;20493;-60
2024/03/28 20:08:42;;;;;;;1.90;0.65;;;;;;;8.27;51.54;97887.50;10424831;28;20551;-59
2024/03/28 20:13:43;;;;;;;0.50;0.50;;;;;;;8.42;51.12;97898.44;10423057;28;20052;-60
2024/03/28 20:18:44;;;;;;;0.38;0.32;;;;;;;8.38;51.18;97905.69;10424597;28;20110;-60
2024/03/28 20:23:45;;;;;;;1.15;0.82;;;;;;;8.36;50.98;97919.78;10428011;28;20040;-59
2024/03/28 20:28:46;;;;;;;0.60;0.60;;;;;;;8.37;50.92;97914.44;10426572;28;20049;-59
2024/03/28 20:33:46;;;;;;;1.15;0.60;;;;;;;8.35;51.03;97933.75;10411567;28;20126;-59
2024/03/28 20:38:48;;;;;;;0.47;0.43;;;;;;;8.29;51.35;97939.47;10427209;28;20084;-60
2024/03/28 20:43:50;;;;;;;1.70;1.00;;;;;;;8.25;51.10;97946.69;10427214;28;20041;-59
2024/03/28 20:48:51;;;;;;;1.45;0.80;;;;;;;8.27;50.97;97957.81;10393891;28;20059;-60
2024/03/28 20:53:51;;;;;;;0.75;0.50;;;;;;;8.17;50.71;97959.53;10423198;28;20429;-59
2024/03/28 20:58:52;;;;;;;1.65;0.73;;;;;;;8.23;50.89;97976.41;10390367;28;20048;-59
2024/03/28 21:03:54;;;;;;;1.40;0.57;;;;;;;8.22;50.85;97969.56;10417586;28;20157;-60
2024/03/28 21:14:16;;;;;;;0.40;0.40;;;;;;;8.20;50.67;97985.28;10430419;28;20374;-60
2024/03/28 21:19:19;;;;;;;2.78;1.00;;;;;;;8.08;50.90;97996.66;10421623;28;20424;-60
2024/03/28 21:24:21;;;;;;;0.75;0.63;;;;;;;8.01;51.05;97998.94;10437335;28;20585;-59
2024/03/28 21:29:23;;;;;;;0.43;0.40;;;;;;;7.96;50.91;98001.09;10437496;28;20056;-59
2024/03/28 21:34:27;;;;;;;0.40;0.40;;;;;;;7.96;50.81;97998.47;10438846;28;20129;-59
2024/03/28 21:39:29;;;;;;;2.08;0.40;;;;;;;7.99;50.71;98006.06;10437826;28;20048;-59
2024/03/28 21:44:33;;;;;;;2.75;1.00;;;;;;;8.00;50.75;98004.25;10438319;28;20372;-59
2024/03/28 21:49:34;;;;;;;0.50;0.40;;;;;;;7.92;50.75;98009.25;10421885;28;20415;-59
2024/03/28 21:54:36;;;;;;;0.73;0.70;;;;;;;7.74;50.76;98006.34;10437877;28;20087;-59
2024/03/28 21:59:41;;;;;;;1.05;0.50;;;;;;;7.68;50.78;98016.38;10413190;28;20060;-60
2024/03/28 22:04:42;;;;;;;0.80;0.60;;;;;;;7.57;50.86;98022.41;10437460;28;20877;-60
2024/03/28 22:09:43;;;;;;;0.77;0.70;;;;;;;7.45;51.18;98020.78;10420663;28;20045;-59
2024/03/28 22:14:46;;;;;;;1.17;0.63;;;;;;;7.39;51.45;98030.81;10436307;28;20128;-59
2024/03/28 22:19:48;;;;;;;0.85;0.70;;;;;;;7.26;51.55;98030.94;10427536;28;20048;-60
2024/03/28 22:24:53;;;;;;;1.70;0.70;;;;;;;7.33;51.44;98037.31;10402679;28;20041;-60
2024/03/28 22:29:55;;;;;;;0.90;0.73;;;;;;;7.30;51.66;98044.53;10418205;28;20504;-59
2024/03/28 22:34:56;;;;;;;1.50;0.60;;;;;;;7.43;51.46;98059.06;10436389;28;20451;-60
2024/03/28 22:39:57;;;;;;;0.40;0.40;;;;;;;7.39;51.33;98049.00;10413528;28;20051;-60
2024/03/28 22:44:59;;;;;;;2.90;0.90;;;;;;;7.29;51.53;98061.91;10413558;28;20076;-59
2024/03/28 22:50:01;;;;;;;2.03;0.90;;;;;;;7.07;51.86;98061.88;10435257;28;20160;-60
2024/03/28 22:55:03;;;;;;;1.90;0.93;;;;;;;6.96;52.08;98061.81;10429530;28;20060;-59
2024/03/28 23:00:06;;;;;;;2.85;0.80;;;;;;;6.83;52.38;98061.94;10433680;28;20462;-59
2024/03/28 23:05:07;;;;;;;1.20;0.90;;;;;;;6.83;52.69;98066.28;10435252;28;20053;-60
2024/03/28 23:10:10;;;;;;;2.92;1.13;;;;;;;6.76;52.73;98050.31;10435382;28;20315;-59
2024/03/28 23:15:11;;;;;;;4.00;1.77;;;;;;;6.63;53.08;98056.56;10434773;28;20409;-59
2024/03/28 23:20:12;;;;;;;3.05;1.30;;;;;;;6.57;53.08;98039.63;10434601;28;20083;-59
2024/03/28 23:25:13;;;;;;;4.30;1.00;;;;;;;6.59;53.17;98049.94;10417445;28;20056;-59
2024/03/28 23:30:14;;;;;;;1.75;0.82;;;;;;;6.56;53.29;98044.94;10417628;28;20059;-59
2024/03/28 23:35:15;;;;;;;2.85;1.80;;;;;;;6.46;53.31;98050.00;10433315;28;20057;-59
2024/03/28 23:40:16;;;;;;;2.25;1.30;;;;;;;6.27;53.84;98049.66;10433772;28;20041;-59
2024/03/28 23:45:18;;;;;;;5.00;1.48;;;;;;;6.10;54.21;98047.41;10433771;28;20033;-59